Terminal Aerodrome Forecast
Issued by NWS

Home | Current Version | Previous Version | Graphics & Text | Print | Product List | Glossary Off
Versions: 1 2 3 4 5 6 7 8 9 10 11 12 13 14 15 16 17 18 19 20

000
FTUS43 KOAX 311501 AAA
TAFCDR
TAF AMD
KCDR 311501Z 3115/0112 27010KT P6SM VCSH BKN090
     FM311900 01009KT P6SM BKN100
     FM312000 15011G20KT P6SM BKN100
     FM010100 19011KT P6SM BKN100=

USA.gov is the U.S. government's official web portal to all federal, state and local government web resources and services.